Time;durP1;ratioP1;P1;durP2;ratioP2;P2;SDS_P1;SDS_P2;PMS_P1;PMS_P2;Temp;Humidity;BMP_temperature;BMP_pressure;BME280_temperature;BME280_humidity;BME280_pressure;Samples;Min_cycle;Max_cycle;Signal;HPM_P1;HPM_P2
2021/11/11 03:29:56;;;;;;;0.30;0.30;;;;;;;7.01;89.95;100860.59;5021187;28;20390;-69
2021/11/11 03:32:22;;;;;;;0.30;0.30;;;;;;;7.04;90.37;100844.31;5021206;28;20098;-70
2021/11/11 03:34:49;;;;;;;0.30;0.30;;;;;;;7.07;90.53;100852.97;5021180;28;20026;-69
2021/11/11 03:37:15;;;;;;;0.32;0.32;;;;;;;7.12;90.42;100857.31;5021074;28;20029;-69
2021/11/11 03:39:41;;;;;;;0.30;0.30;;;;;;;7.12;90.62;100858.19;5019715;28;20018;-69
2021/11/11 03:42:08;;;;;;;0.30;0.30;;;;;;;7.16;91.01;100848.75;5021096;28;20018;-69
2021/11/11 03:44:34;;;;;;;0.30;0.30;;;;;;;7.15;91.39;100842.75;5021230;28;20206;-70
2021/11/11 03:47:03;;;;;;;1.98;1.88;;;;;;;7.13;91.37;100849.59;5020929;28;20080;-69
2021/11/11 03:49:29;;;;;;;1.27;1.27;;;;;;;7.15;91.10;100853.06;5020786;28;20069;-69
2021/11/11 03:51:55;;;;;;;0.30;0.30;;;;;;;7.17;91.05;100856.50;5019295;28;20025;-69
2021/11/11 03:54:22;;;;;;;0.30;0.30;;;;;;;7.17;91.39;100850.50;5021056;28;20330;-69
2021/11/11 03:56:49;;;;;;;2.35;2.25;;;;;;;7.18;91.42;100858.28;5020754;28;20462;-69
2021/11/11 03:59:15;;;;;;;0.30;0.30;;;;;;;7.28;91.13;100858.38;5020799;28;20029;-69
2021/11/11 04:01:41;;;;;;;0.30;0.30;;;;;;;7.28;91.61;100848.94;5020558;28;20046;-69
2021/11/11 04:04:07;;;;;;;0.30;0.30;;;;;;;7.27;91.25;100847.19;5020678;28;20338;-69
2021/11/11 04:06:33;;;;;;;0.30;0.30;;;;;;;7.31;91.53;100840.34;5020413;28;20026;-70
2021/11/11 04:09:01;;;;;;;0.40;0.40;;;;;;;7.31;91.03;100838.63;5020596;28;20029;-70
2021/11/11 04:11:27;;;;;;;0.30;0.30;;;;;;;7.26;91.24;100822.22;5020306;28;20032;-70
2021/11/11 04:13:54;;;;;;;0.30;0.30;;;;;;;7.33;91.53;100833.50;5020617;28;20022;-70
2021/11/11 04:16:19;;;;;;;0.85;0.80;;;;;;;7.42;91.46;100827.53;5020316;28;20027;-70
2021/11/11 04:18:45;;;;;;;0.30;0.30;;;;;;;7.43;92.07;100813.78;5020460;28;20049;-70
2021/11/11 04:21:10;;;;;;;0.50;0.50;;;;;;;7.37;91.75;100801.66;5020096;28;20026;-70
2021/11/11 04:23:36;;;;;;;0.30;0.30;;;;;;;7.42;91.42;100815.50;5020527;28;20033;-70
2021/11/11 04:26:20;;;;;;;0.32;0.32;;;;;;;7.41;91.50;100803.41;5020379;28;20484;-69
2021/11/11 04:28:54;;;;;;;0.30;0.30;;;;;;;7.43;91.55;100793.09;5030750;28;20346;-69
2021/11/11 04:31:25;;;;;;;0.40;0.40;;;;;;;7.36;91.21;100780.97;5039767;28;20057;-70
2021/11/11 04:33:54;;;;;;;2.05;1.95;;;;;;;7.35;91.35;100789.59;5038719;28;20025;-69
2021/11/11 04:42:03;;;;;;;0.40;0.40;;;;;;;7.33;91.21;100776.66;5025905;28;20398;-70
2021/11/11 04:47:28;;;;;;;0.40;0.40;;;;;;;7.27;91.07;100779.16;5026660;28;20037;-70
2021/11/11 05:03:33;;;;;;;0.30;0.30;;;;;;;7.43;90.98;100778.47;5026090;28;20058;-69
2021/11/11 05:06:01;;;;;;;1.83;1.75;;;;;;;7.46;90.50;100784.53;5024637;28;20029;-69
2021/11/11 05:08:26;;;;;;;0.40;0.40;;;;;;;7.49;91.02;100771.66;5026071;28;20073;-66
2021/11/11 05:10:52;;;;;;;0.30;0.30;;;;;;;7.45;90.83;100755.25;5024730;28;20022;-68
2021/11/11 05:13:18;;;;;;;0.30;0.30;;;;;;;7.49;90.34;100758.72;5026007;28;20026;-68
2021/11/11 05:15:44;;;;;;;0.40;0.40;;;;;;;7.53;90.29;100751.03;5026282;28;20063;-68
2021/11/11 05:18:10;;;;;;;0.40;0.40;;;;;;;7.50;90.33;100751.00;5025864;28;20022;-69
2021/11/11 05:20:35;;;;;;;0.47;0.47;;;;;;;7.53;89.82;100755.31;5025623;28;20076;-69
2021/11/11 05:23:01;;;;;;;1.50;1.40;;;;;;;7.52;89.98;100756.19;5025782;28;20049;-69
2021/11/11 05:25:26;;;;;;;0.40;0.40;;;;;;;7.48;89.61;100742.34;5025914;28;20018;-68
2021/11/11 05:27:51;;;;;;;0.38;0.38;;;;;;;7.53;90.10;100744.97;5025732;28;20034;-69
2021/11/11 05:30:19;;;;;;;0.40;0.40;;;;;;;7.52;90.27;100743.25;5025414;28;20063;-69
2021/11/11 05:32:46;;;;;;;0.93;0.93;;;;;;;7.53;89.71;100752.75;5025483;28;20044;-69
2021/11/11 05:35:12;;;;;;;0.30;0.30;;;;;;;7.51;89.79;100747.56;5025332;28;20036;-69
2021/11/11 05:37:39;;;;;;;0.40;0.40;;;;;;;7.51;89.92;100736.34;5025833;28;20026;-69
2021/11/11 05:40:06;;;;;;;0.40;0.40;;;;;;;7.55;89.68;100728.66;5025505;28;20080;-69
2021/11/11 05:42:33;;;;;;;0.40;0.40;;;;;;;7.53;89.78;100732.06;5025137;28;20030;-69
2021/11/11 05:44:58;;;;;;;0.30;0.30;;;;;;;7.51;89.48;100726.00;5025551;28;20037;-69
2021/11/11 05:47:23;;;;;;;0.30;0.30;;;;;;;7.50;89.35;100716.53;5025400;28;20033;-69
2021/11/11 05:49:49;;;;;;;0.30;0.30;;;;;;;7.51;89.40;100723.41;5025426;28;20049;-69
2021/11/11 05:52:14;;;;;;;0.40;0.40;;;;;;;7.51;88.69;100718.25;5022835;28;20502;-69
2021/11/11 05:54:40;;;;;;;1.30;1.30;;;;;;;7.52;88.62;100712.25;5025532;28;20022;-71
2021/11/11 05:57:06;;;;;;;1.15;1.15;;;;;;;7.52;89.06;100707.09;5025660;28;20022;-72
2021/11/11 05:59:32;;;;;;;0.40;0.40;;;;;;;7.44;88.95;100700.13;5025507;28;20176;-72
2021/11/11 06:01:58;;;;;;;0.30;0.30;;;;;;;7.47;88.84;100698.44;5025209;28;20437;-72
2021/11/11 06:04:24;;;;;;;0.35;0.35;;;;;;;7.47;88.84;100701.88;5025568;28;20017;-72
2021/11/11 06:06:49;;;;;;;0.40;0.40;;;;;;;7.48;89.46;100685.53;5025288;28;20052;-72
2021/11/11 06:09:15;;;;;;;0.30;0.30;;;;;;;7.48;89.69;100687.22;5024220;28;20385;-70
2021/11/11 06:11:40;;;;;;;0.70;0.70;;;;;;;7.44;89.34;100694.94;5023752;28;20025;-72
2021/11/11 06:14:05;;;;;;;0.40;0.40;;;;;;;7.41;89.07;100700.09;5025099;28;20491;-71
2021/11/11 06:16:32;;;;;;;0.40;0.40;;;;;;;7.38;88.75;100705.22;5023582;28;20022;-71
2021/11/11 06:18:57;;;;;;;0.40;0.40;;;;;;;7.40;89.13;100698.38;5025124;28;20092;-71
2021/11/11 06:21:23;;;;;;;0.40;0.40;;;;;;;7.35;89.32;100712.94;5024367;28;20437;-69
2021/11/11 06:23:50;;;;;;;0.40;0.40;;;;;;;7.33;89.34;100694.00;5024670;28;20026;-69
2021/11/11 06:26:17;;;;;;;5.10;3.83;;;;;;;7.32;89.34;100689.69;5024735;28;20018;-69
2021/11/11 06:28:43;;;;;;;0.30;0.30;;;;;;;7.28;89.63;100673.31;5024518;28;20070;-69
2021/11/11 06:31:08;;;;;;;0.40;0.40;;;;;;;7.29;89.29;100682.78;5024607;28;20022;-69
2021/11/11 06:33:33;;;;;;;0.30;0.30;;;;;;;7.32;89.17;100676.75;5024496;28;20033;-69
2021/11/11 06:35:59;;;;;;;0.40;0.40;;;;;;;7.28;89.14;100668.16;5024050;28;20036;-70
2021/11/11 06:38:24;;;;;;;0.30;0.30;;;;;;;7.31;89.35;100673.34;5024584;28;20029;-70
2021/11/11 06:40:52;;;;;;;0.30;0.30;;;;;;;7.32;89.19;100669.00;5024438;28;20053;-70
2021/11/11 06:43:18;;;;;;;0.30;0.30;;;;;;;7.36;89.20;100670.78;5024515;28;20034;-70
2021/11/11 06:45:43;;;;;;;0.30;0.30;;;;;;;7.40;89.54;100669.97;5024381;28;20052;-70
2021/11/11 06:48:10;;;;;;;2.70;2.50;;;;;;;7.42;88.98;100676.00;5024712;28;20072;-70
2021/11/11 06:50:36;;;;;;;0.30;0.30;;;;;;;7.47;88.80;100675.19;5022946;28;20060;-70
2021/11/11 06:53:02;;;;;;;0.40;0.40;;;;;;;7.50;88.42;100670.91;5024297;28;20022;-69
2021/11/11 06:55:28;;;;;;;0.30;0.30;;;;;;;7.54;88.91;100672.66;5023125;28;20176;-70
2021/11/11 06:57:53;;;;;;;0.30;0.30;;;;;;;7.61;88.86;100671.00;5024297;28;20093;-70
2021/11/11 07:00:19;;;;;;;0.40;0.40;;;;;;;7.65;88.95;100672.75;5024375;28;20026;-71
2021/11/11 07:02:45;;;;;;;2.70;2.60;;;;;;;7.67;88.95;100670.16;5023809;28;20025;-69
2021/11/11 07:05:11;;;;;;;1.00;1.00;;;;;;;7.81;89.36;100665.97;5024292;28;20293;-70
2021/11/11 07:07:36;;;;;;;0.30;0.30;;;;;;;7.79;89.18;100662.53;5024132;28;20080;-69
2021/11/11 07:10:04;;;;;;;0.30;0.30;;;;;;;7.88;89.83;100663.44;5024314;28;20018;-69
2021/11/11 07:12:29;;;;;;;2.15;2.05;;;;;;;7.91;88.97;100655.69;5023972;28;20025;-69
2021/11/11 07:14:55;;;;;;;0.30;0.30;;;;;;;8.00;89.63;100657.50;5024282;28;20021;-70
2021/11/11 07:17:21;;;;;;;0.30;0.30;;;;;;;8.01;89.12;100654.03;5023960;28;20176;-70
2021/11/11 07:19:47;;;;;;;1.27;1.02;;;;;;;8.00;88.62;100639.38;5023904;28;20041;-70
2021/11/11 07:22:12;;;;;;;0.40;0.40;;;;;;;8.08;88.71;100649.78;5023563;28;20022;-69
2021/11/11 07:24:37;;;;;;;0.30;0.30;;;;;;;8.08;88.38;100636.84;5024001;28;20030;-69
2021/11/11 07:27:03;;;;;;;0.30;0.30;;;;;;;8.19;88.68;100643.78;5023812;28;20029;-68
2021/11/11 07:29:28;;;;;;;1.67;1.58;;;;;;;8.19;88.18;100637.78;5023798;28;20038;-69
2021/11/11 07:31:54;;;;;;;0.30;0.30;;;;;;;8.23;88.32;100633.47;5023589;28;20117;-69
2021/11/11 07:34:22;;;;;;;3.60;2.72;;;;;;;8.29;88.26;100636.94;5023986;28;20282;-70
2021/11/11 07:36:48;;;;;;;0.30;0.30;;;;;;;8.33;88.25;100630.06;5023587;28;20014;-69
2021/11/11 07:39:15;;;;;;;0.30;0.30;;;;;;;8.35;88.03;100623.19;5022638;28;20049;-70
2021/11/11 07:41:43;;;;;;;0.30;0.30;;;;;;;8.38;88.16;100619.75;5023683;28;20026;-69
2021/11/11 07:44:10;;;;;;;0.40;0.40;;;;;;;8.45;88.59;100629.25;5023797;28;20069;-69
2021/11/11 07:46:37;;;;;;;0.30;0.30;;;;;;;8.49;88.38;100627.53;5023605;28;20050;-69
2021/11/11 07:49:03;;;;;;;0.30;0.30;;;;;;;8.48;88.08;100623.22;5023721;28;20250;-68
2021/11/11 07:51:28;;;;;;;0.30;0.30;;;;;;;8.51;88.33;100618.94;5023557;28;20239;-70
2021/11/11 07:53:54;;;;;;;0.30;0.30;;;;;;;8.55;88.33;100606.88;5023737;28;20041;-69
2021/11/11 07:56:19;;;;;;;0.30;0.30;;;;;;;8.56;88.10;100611.22;5023630;28;20113;-70
2021/11/11 07:58:44;;;;;;;0.30;0.30;;;;;;;8.53;88.57;100599.09;5023714;28;20053;-69
2021/11/11 08:01:10;;;;;;;0.30;0.30;;;;;;;8.65;88.57;100612.97;5023542;28;20026;-69
2021/11/11 08:03:36;;;;;;;0.57;0.57;;;;;;;8.64;88.56;100606.91;5022359;28;20121;-69
2021/11/11 08:06:01;;;;;;;0.30;0.30;;;;;;;8.71;88.75;100604.34;5023377;28;20029;-70
2021/11/11 08:08:27;;;;;;;30.40;5.55;;;;;;;8.68;89.42;100603.50;5023414;28;20101;-70
2021/11/11 08:10:52;;;;;;;21.20;5.80;;;;;;;8.70;89.45;100594.84;5023424;28;20032;-70
2021/11/11 08:13:18;;;;;;;33.88;5.95;;;;;;;8.66;89.71;100592.25;5023511;28;20040;-69
2021/11/11 08:15:43;;;;;;;22.83;3.38;;;;;;;8.66;89.79;100586.22;5024160;28;20606;-69
2021/11/11 08:18:09;;;;;;;20.65;3.17;;;;;;;8.62;89.73;100585.38;5027090;28;20392;-68
2021/11/11 08:20:35;;;;;;;16.55;2.80;;;;;;;8.55;90.09;100583.59;5025416;28;20026;-67
2021/11/11 08:23:00;;;;;;;16.95;2.75;;;;;;;8.46;90.69;100581.84;5027049;28;20032;-69
2021/11/11 08:25:26;;;;;;;17.77;2.72;;;;;;;8.40;90.77;100581.81;5027038;28;20307;-69
2021/11/11 08:27:53;;;;;;;13.45;2.97;;;;;;;8.33;91.34;100578.34;5026535;28;20046;-68
2021/11/11 08:30:20;;;;;;;17.70;3.75;;;;;;;8.30;91.76;100570.56;5026773;28;20041;-68
2021/11/11 08:32:47;;;;;;;16.00;3.10;;;;;;;8.26;92.24;100576.59;5026544;28;20053;-68
2021/11/11 08:35:14;;;;;;;22.80;4.07;;;;;;;8.27;92.51;100578.31;5026829;28;20022;-68
2021/11/11 08:37:42;;;;;;;22.63;6.25;;;;;;;8.28;92.65;100570.56;5026186;28;20040;-69
2021/11/11 08:40:09;;;;;;;22.27;4.82;;;;;;;8.29;92.90;100563.69;5026530;28;20044;-70
2021/11/11 08:42:34;;;;;;;17.80;3.88;;;;;;;8.27;93.41;100555.91;5026455;28;20030;-70
2021/11/11 08:45:00;;;;;;;22.38;3.75;;;;;;;8.33;93.76;100557.63;5026646;28;20049;-69
2021/11/11 08:47:26;;;;;;;23.92;6.20;;;;;;;8.35;93.96;100536.94;5026773;28;20462;-70
2021/11/11 08:49:53;;;;;;;20.35;6.38;;;;;;;8.39;93.97;100557.66;5026523;28;20022;-70
2021/11/11 08:52:20;;;;;;;25.33;6.57;;;;;;;8.41;93.99;100540.44;5026237;28;20113;-71
2021/11/11 08:54:47;;;;;;;88.78;10.98;;;;;;;8.39;94.35;100534.38;5026509;28;20030;-70
2021/11/11 08:57:13;;;;;;;31.88;6.22;;;;;;;8.43;94.87;100530.06;5026371;28;20061;-69
2021/11/11 08:59:39;;;;;;;36.03;7.05;;;;;;;8.42;94.97;100534.38;5026616;28;20029;-69
2021/11/11 09:02:04;;;;;;;25.83;5.85;;;;;;;8.43;95.13;100523.16;5026193;28;20147;-69
2021/11/11 09:04:30;;;;;;;30.23;6.30;;;;;;;8.45;95.59;100518.00;5026263;28;20054;-68
2021/11/11 09:06:58;;;;;;;28.52;5.68;;;;;;;8.53;95.99;100525.78;5025879;28;20022;-69
2021/11/11 09:09:23;;;;;;;19.20;4.45;;;;;;;8.54;96.21;100523.25;5026303;28;20030;-69
2021/11/11 09:11:49;;;;;;;23.55;5.85;;;;;;;8.57;96.03;100518.91;5025974;28;20117;-70
2021/11/11 09:14:15;;;;;;;25.23;5.82;;;;;;;8.58;96.22;100525.84;5026235;28;20040;-71
2021/11/11 09:16:40;;;;;;;25.65;6.50;;;;;;;8.60;95.99;100527.56;5025904;28;20026;-70
2021/11/11 09:19:06;;;;;;;22.05;4.60;;;;;;;8.61;96.08;100521.50;5026138;28;20021;-71
2021/11/11 09:21:32;;;;;;;20.58;5.55;;;;;;;8.62;96.01;100523.25;5025736;28;20022;-71
2021/11/11 09:23:58;;;;;;;23.98;5.50;;;;;;;8.63;96.20;100535.31;5026164;28;20302;-69
2021/11/11 09:26:24;;;;;;;28.42;5.63;;;;;;;8.62;96.11;100533.59;5025789;28;20030;-72
2021/11/11 09:28:50;;;;;;;24.98;5.88;;;;;;;8.55;95.98;100534.44;5024151;28;20042;-69
2021/11/11 09:31:16;;;;;;;15.88;3.95;;;;;;;8.51;95.90;100530.09;5025569;28;20022;-70
2021/11/11 09:33:44;;;;;;;21.42;5.35;;;;;;;8.47;95.76;100538.69;5025724;28;20022;-70
2021/11/11 09:36:15;;;;;;;19.90;5.18;;;;;;;8.41;95.43;100524.91;5025437;28;20075;-69
2021/11/11 09:38:41;;;;;;;23.95;3.60;;;;;;;8.50;95.55;100539.56;5025591;28;20018;-71
2021/11/11 09:41:06;;;;;;;25.90;5.80;;;;;;;8.52;95.70;100535.28;5025525;28;20049;-72
2021/11/11 09:43:35;;;;;;;21.90;5.53;;;;;;;8.58;95.57;100539.63;5025435;28;20033;-70
2021/11/11 09:46:00;;;;;;;25.15;5.18;;;;;;;8.59;95.30;100531.00;5025338;28;20052;-69
2021/11/11 09:48:27;;;;;;;23.90;4.70;;;;;;;8.66;95.53;100537.03;5025367;28;20022;-69
2021/11/11 09:50:54;;;;;;;25.38;4.65;;;;;;;8.59;95.30;100531.00;5025023;28;20397;-71
2021/11/11 09:53:24;;;;;;;26.38;5.50;;;;;;;8.66;94.75;100542.22;5025042;28;20134;-72
2021/11/11 09:58:39;;;;;;;17.20;4.22;;;;;;;8.68;94.40;100548.25;5025163;28;20028;-71
2021/11/11 10:01:09;;;;;;;25.60;4.97;;;;;;;8.70;94.34;100556.03;5025220;28;20112;-70
2021/11/11 10:03:42;;;;;;;19.90;4.80;;;;;;;8.73;94.35;100551.72;5025168;28;20034;-72
2021/11/11 10:06:10;;;;;;;11.07;3.35;;;;;;;8.75;94.36;100554.31;5023554;28;20018;-73
2021/11/11 10:08:42;;;;;;;11.77;4.25;;;;;;;8.83;94.31;100556.91;5025133;28;20041;-73
2021/11/11 10:11:31;;;;;;;15.52;3.40;;;;;;;8.91;94.09;100544.84;5024926;28;20030;-73
2021/11/11 10:14:08;;;;;;;30.13;3.83;;;;;;;9.30;95.14;100548.28;5024998;28;20014;-70
2021/11/11 10:16:36;;;;;;;14.60;2.75;;;;;;;10.27;93.52;100545.41;5024972;28;20077;-69
2021/11/11 10:19:04;;;;;;;17.95;3.00;;;;;;;10.96;89.59;100537.22;5025233;28;20251;-69
2021/11/11 10:21:50;;;;;;;20.50;3.38;;;;;;;11.38;88.26;100543.81;5024511;28;20028;-67
2021/11/11 10:24:30;;;;;;;17.02;3.50;;;;;;;11.48;87.03;100544.56;5024698;28;20036;-67
2021/11/11 10:27:04;;;;;;;26.25;3.97;;;;;;;11.28;86.40;100538.69;5024491;28;20045;-67
2021/11/11 10:29:37;;;;;;;19.52;3.22;;;;;;;10.96;86.71;100536.38;5022981;28;20072;-68
2021/11/11 10:32:11;;;;;;;16.10;2.55;;;;;;;10.60;86.53;100534.03;5024680;28;20028;-67
2021/11/11 10:34:50;;;;;;;13.45;2.53;;;;;;;10.28;85.94;100541.09;5024626;28;20089;-68
2021/11/11 10:37:16;;;;;;;16.98;3.28;;;;;;;10.00;86.86;100512.69;5024061;28;20385;-67
2021/11/11 10:39:55;;;;;;;21.50;3.60;;;;;;;9.96;87.89;100526.53;5024516;28;20076;-68
2021/11/11 10:42:24;;;;;;;13.93;2.33;;;;;;;9.80;88.13;100518.81;5024367;28;20053;-68
2021/11/11 10:44:53;;;;;;;11.07;2.65;;;;;;;9.66;87.05;100524.06;5024531;28;20029;-68
2021/11/11 10:47:28;;;;;;;14.38;3.20;;;;;;;9.56;86.56;100515.44;5024399;28;20018;-68
2021/11/11 10:49:55;;;;;;;20.52;4.03;;;;;;;9.46;86.55;100524.94;5024399;28;20125;-69
2021/11/11 10:52:31;;;;;;;12.82;3.83;;;;;;;9.43;87.61;100519.78;5023964;28;20029;-68
2021/11/11 10:55:15;;;;;;;15.55;3.13;;;;;;;9.45;88.31;100518.06;5024612;28;20297;-69
2021/11/11 10:57:51;;;;;;;17.92;3.22;;;;;;;9.54;88.17;100509.38;5024233;28;20056;-69
2021/11/11 11:00:43;;;;;;;24.20;3.50;;;;;;;9.53;87.34;100507.66;5023162;28;20022;-69
2021/11/11 11:03:13;;;;;;;20.00;2.53;;;;;;;9.62;88.19;100502.44;5024139;28;20422;-68
2021/11/11 11:05:55;;;;;;;10.50;2.47;;;;;;;9.71;86.62;100500.69;5024110;28;20026;-69
2021/11/11 11:08:25;;;;;;;20.40;3.38;;;;;;;9.67;85.49;100497.25;5024266;28;20018;-69
2021/11/11 11:10:59;;;;;;;17.25;3.78;;;;;;;9.61;86.72;100500.75;5024317;28;20034;-69
2021/11/11 11:13:29;;;;;;;19.70;3.75;;;;;;;9.69;87.17;100492.94;5024170;28;20354;-70
2021/11/11 11:16:02;;;;;;;11.90;2.58;;;;;;;9.62;85.57;100486.03;5024119;28;20093;-69
2021/11/11 11:18:31;;;;;;;11.60;2.38;;;;;;;9.61;85.70;100495.56;5024067;28;20018;-68
2021/11/11 11:21:00;;;;;;;17.35;3.35;;;;;;;9.64;86.49;100494.66;5023868;28;20381;-68
2021/11/11 11:23:40;;;;;;;13.40;3.15;;;;;;;9.62;85.79;100489.50;5022683;28;20018;-69
2021/11/11 11:26:16;;;;;;;16.17;4.15;;;;;;;9.46;84.39;100473.13;5024026;28;20141;-68
2021/11/11 11:29:14;;;;;;;20.35;3.10;;;;;;;9.51;85.44;100476.56;5023805;28;20041;-69
2021/11/11 11:34:26;;;;;;;20.77;3.80;;;;;;;9.50;85.29;100461.91;5024104;28;20029;-69
2021/11/11 11:37:21;;;;;;;14.80;2.45;;;;;;;9.37;84.54;100440.34;5023682;28;20018;-70
2021/11/11 11:39:56;;;;;;;20.83;3.97;;;;;;;9.40;84.43;100442.91;5023504;28;20030;-70
2021/11/11 11:42:30;;;;;;;17.48;3.67;;;;;;;9.47;84.29;100463.63;5023784;28;20450;-69
2021/11/11 11:45:21;;;;;;;15.65;2.95;;;;;;;9.49;83.38;100460.16;5023852;28;20042;-70
2021/11/11 11:50:23;;;;;;;15.40;3.92;;;;;;;9.53;84.62;100443.75;5025328;28;20092;-70
2021/11/11 11:53:01;;;;;;;18.02;3.63;;;;;;;9.60;84.78;100441.13;5027297;28;20531;-69
2021/11/11 11:55:34;;;;;;;17.00;3.05;;;;;;;9.61;84.09;100448.91;5027900;28;20022;-69
2021/11/11 12:09:20;;;;;;;13.57;3.30;;;;;;;9.77;83.89;100433.28;5027581;28;20029;-68
2021/11/11 12:17:40;;;;;;;14.95;2.50;;;;;;;10.17;84.42;100420.06;5027326;28;20472;-69
2021/11/11 12:40:03;;;;;;;12.27;2.47;;;;;;;9.98;83.31;100396.00;5026816;28;20028;-70
2021/11/11 12:42:32;;;;;;;19.92;3.08;;;;;;;9.90;83.09;100403.78;5026837;28;20062;-69
2021/11/11 12:45:01;;;;;;;12.00;2.65;;;;;;;9.85;83.49;100400.38;5026632;28;20029;-70
2021/11/11 12:47:36;;;;;;;16.02;4.00;;;;;;;9.89;83.08;100406.41;5026555;28;20089;-69
2021/11/11 12:50:56;;;;;;;21.50;3.30;;;;;;;9.94;82.56;100398.59;5026627;28;20025;-69
2021/11/11 12:53:35;;;;;;;11.75;3.58;;;;;;;9.92;82.69;100404.66;5009877;28;20034;-70
2021/11/11 12:56:01;;;;;;;24.58;4.07;;;;;;;9.97;83.17;100403.78;5026568;28;20022;-71
2021/11/11 12:58:31;;;;;;;21.15;2.97;;;;;;;9.97;82.34;100401.19;5026539;28;20022;-69
2021/11/11 13:01:08;;;;;;;25.58;3.97;;;;;;;9.99;81.89;100404.63;5026094;28;20037;-70
2021/11/11 13:03:56;;;;;;;22.90;4.18;;;;;;;10.02;81.13;100396.81;5026466;28;20021;-69
2021/11/11 13:06:49;;;;;;;19.17;4.72;;;;;;;9.99;80.39;100400.31;5026229;28;20025;-70
2021/11/11 13:09:18;;;;;;;13.82;2.55;;;;;;;9.99;80.18;100413.28;5022154;28;20034;-71
2021/11/11 13:11:46;;;;;;;18.35;4.43;;;;;;;10.06;80.98;100401.13;5026245;28;20030;-70
2021/11/11 13:14:26;;;;;;;19.77;4.13;;;;;;;10.14;80.84;100412.28;5026311;28;20019;-70
2021/11/11 13:16:54;;;;;;;19.30;3.58;;;;;;;10.14;81.74;100404.50;5026096;28;20482;-70
2021/11/11 13:19:54;;;;;;;19.65;4.95;;;;;;;10.15;80.75;100411.44;5026117;28;20033;-69
2021/11/11 13:22:27;;;;;;;19.40;3.35;;;;;;;10.11;80.57;100407.13;5025913;28;20432;-69
2021/11/11 13:59:48;;;;;;;19.80;3.30;;;;;;;9.70;81.50;100384.88;5025509;28;20025;-70
2021/11/11 15:46:41;;;;;;;31.17;3.92;;;;;;;8.65;81.38;100455.97;5023784;28;20125;-70
2021/11/11 15:57:08;;;;;;;21.55;4.35;;;;;;;8.53;80.85;100458.50;5023555;28;20040;-69
2021/11/11 16:02:10;;;;;;;19.13;3.65;;;;;;;8.66;82.44;100483.56;5023855;28;20033;-69
2021/11/11 16:21:28;;;;;;;22.67;3.85;;;;;;;8.57;79.54;100503.38;5023202;28;20069;-69
2021/11/11 16:26:17;;;;;;;18.80;3.47;;;;;;;8.54;78.96;100512.88;5023555;28;20030;-69
2021/11/11 16:28:50;;;;;;;13.40;2.92;;;;;;;8.57;79.70;100512.03;5021668;28;20057;-69
2021/11/11 16:31:20;;;;;;;25.38;3.78;;;;;;;8.51;79.17;100527.50;5023379;28;20030;-69
2021/11/11 16:33:46;;;;;;;22.00;4.30;;;;;;;8.53;79.91;100526.63;5023241;28;20045;-70
2021/11/11 16:36:12;;;;;;;12.40;3.05;;;;;;;8.56;80.64;100520.66;5024006;28;20026;-70
2021/11/11 16:38:38;;;;;;;15.20;3.35;;;;;;;8.59;80.94;100533.59;5027021;28;20461;-70
2021/11/11 16:41:07;;;;;;;15.15;2.47;;;;;;;8.55;79.26;100537.03;5026862;28;20434;-70
2021/11/11 16:43:34;;;;;;;18.52;4.35;;;;;;;8.56;78.92;100536.19;5026903;28;20021;-71
2021/11/11 16:46:00;;;;;;;18.77;3.08;;;;;;;8.63;78.84;100521.50;5026706;28;20419;-72
2021/11/11 16:48:25;;;;;;;15.10;2.67;;;;;;;8.58;78.75;100516.31;5026647;28;20468;-71
2021/11/11 16:50:50;;;;;;;13.32;3.15;;;;;;;8.61;79.07;100516.31;5026837;28;20465;-68
2021/11/11 16:53:16;;;;;;;19.25;2.88;;;;;;;8.61;79.36;100520.66;5026405;28;20112;-69
2021/11/11 16:55:42;;;;;;;17.35;3.13;;;;;;;8.55;78.99;100519.78;5026457;28;20022;-70
2021/11/11 16:58:07;;;;;;;10.55;2.08;;;;;;;8.54;79.29;100514.56;5026206;28;20029;-70
2021/11/11 17:00:38;;;;;;;12.43;2.38;;;;;;;8.56;79.14;100528.41;5026233;28;20021;-69
2021/11/11 17:03:04;;;;;;;9.93;2.45;;;;;;;8.54;79.52;100540.44;5024569;28;20032;-70
2021/11/11 17:05:30;;;;;;;10.80;2.35;;;;;;;8.44;76.69;100544.72;5025999;28;20032;-70
2021/11/11 17:07:56;;;;;;;14.13;3.28;;;;;;;8.52;77.32;100544.75;5025879;28;20045;-69
2021/11/11 17:10:23;;;;;;;15.85;2.65;;;;;;;8.52;76.72;100552.50;5026095;28;20022;-70
2021/11/11 17:12:49;;;;;;;11.02;2.50;;;;;;;8.52;76.19;100557.69;5025721;28;20044;-70
2021/11/11 17:15:19;;;;;;;16.42;2.63;;;;;;;8.48;75.94;100554.22;5025354;28;20034;-71
2021/11/11 17:17:47;;;;;;;21.55;3.00;;;;;;;8.53;76.20;100559.44;5025708;28;20452;-71
2021/11/11 17:20:17;;;;;;;15.85;2.90;;;;;;;8.59;76.77;100556.88;5025714;28;20044;-70
2021/11/11 17:22:48;;;;;;;11.13;2.67;;;;;;;8.57;77.33;100556.00;5025492;28;20040;-69
2021/11/11 17:30:37;;;;;;;17.60;3.35;;;;;;;8.57;76.59;100561.19;5026094;28;20116;-70
2021/11/11 17:33:03;;;;;;;20.52;2.85;;;;;;;8.53;77.21;100536.16;5025803;28;20030;-69
2021/11/11 17:35:28;;;;;;;14.55;2.60;;;;;;;8.57;75.80;100555.13;5025633;28;20080;-69
2021/11/11 17:37:54;;;;;;;31.10;3.58;;;;;;;8.60;76.34;100545.66;5025377;28;20025;-71
2021/11/11 17:40:20;;;;;;;19.58;3.53;;;;;;;8.68;76.90;100569.84;5025574;28;20014;-69
2021/11/11 17:42:47;;;;;;;24.25;4.70;;;;;;;8.67;76.75;100570.69;5025370;28;20108;-69
2021/11/11 17:45:15;;;;;;;18.42;3.10;;;;;;;8.72;77.66;100575.88;5025448;28;20033;-70
2021/11/11 17:47:41;;;;;;;22.40;3.13;;;;;;;8.71;77.15;100589.69;5025321;28;20018;-68
2021/11/11 17:50:17;;;;;;;24.33;3.67;;;;;;;8.77;77.45;100597.47;5025188;28;20021;-70
2021/11/11 17:52:49;;;;;;;20.23;4.20;;;;;;;8.78;77.70;100599.22;5025018;28;20030;-71
2021/11/11 17:55:16;;;;;;;20.42;3.78;;;;;;;8.78;78.34;100603.50;5025309;28;20028;-70
2021/11/11 17:57:43;;;;;;;16.92;3.63;;;;;;;8.76;78.38;100610.41;5024681;28;20090;-71
2021/11/11 18:00:10;;;;;;;18.60;4.57;;;;;;;8.76;79.05;100603.50;5024954;28;20022;-71
2021/11/11 18:02:35;;;;;;;18.60;3.40;;;;;;;8.66;78.87;100599.16;5024867;28;20033;-69
2021/11/11 18:05:03;;;;;;;11.50;2.63;;;;;;;8.65;79.21;100595.72;5024894;28;20026;-69
2021/11/11 18:07:31;;;;;;;18.88;3.67;;;;;;;8.64;79.05;100604.31;5024623;28;20061;-70
2021/11/11 18:10:05;;;;;;;11.90;2.53;;;;;;;8.61;79.39;100601.72;5024916;28;20018;-69
2021/11/11 18:12:34;;;;;;;20.92;3.88;;;;;;;8.50;78.54;100596.50;5024612;28;20033;-70
2021/11/11 18:15:12;;;;;;;16.70;3.10;;;;;;;8.48;78.02;100594.78;5024869;28;20086;-71
2021/11/11 18:17:45;;;;;;;13.60;3.28;;;;;;;8.43;78.48;100595.59;5024936;28;20022;-70
2021/11/11 18:20:11;;;;;;;11.65;3.03;;;;;;;8.38;78.49;100605.09;5024707;28;20033;-72
2021/11/11 18:22:36;;;;;;;20.25;3.33;;;;;;;8.35;78.49;100617.16;5024492;28;20030;-70
2021/11/11 18:25:03;;;;;;;16.77;3.65;;;;;;;8.36;78.76;100621.44;5024213;28;20087;-68
2021/11/11 18:27:29;;;;;;;21.10;3.17;;;;;;;8.29;78.11;100623.16;5024397;28;20373;-71
2021/11/11 18:30:05;;;;;;;13.93;3.35;;;;;;;8.26;78.72;100630.91;5024193;28;20042;-70
2021/11/11 18:32:32;;;;;;;8.38;2.55;;;;;;;8.20;79.14;100629.16;5024379;28;20026;-69
2021/11/11 18:35:05;;;;;;;19.05;3.40;;;;;;;8.20;80.15;100636.91;5024422;28;20056;-71
2021/11/11 18:37:44;;;;;;;17.05;3.08;;;;;;;8.16;79.96;100646.34;5024066;28;20104;-70
2021/11/11 18:40:09;;;;;;;19.33;3.33;;;;;;;8.13;80.62;100658.44;5024404;28;20026;-70
2021/11/11 18:42:35;;;;;;;15.50;2.58;;;;;;;7.99;79.56;100653.16;5024291;28;20035;-70
2021/11/11 18:45:03;;;;;;;16.33;2.88;;;;;;;7.99;79.91;100655.72;5024288;28;20024;-69
2021/11/11 18:47:40;;;;;;;12.43;2.88;;;;;;;7.97;79.87;100658.31;5023958;28;20025;-68
2021/11/11 18:50:07;;;;;;;12.38;2.65;;;;;;;7.97;79.79;100666.06;5023908;28;20101;-70
2021/11/11 18:52:35;;;;;;;18.73;2.50;;;;;;;7.90;79.81;100670.34;5023821;28;20029;-70
2021/11/11 18:55:01;;;;;;;15.10;2.88;;;;;;;7.90;80.47;100666.91;5024005;28;20461;-68
2021/11/11 18:57:28;;;;;;;12.95;2.92;;;;;;;7.87;80.88;100662.59;5023928;28;20261;-68
2021/11/11 18:59:57;;;;;;;14.05;2.20;;;;;;;7.91;80.66;100664.31;5023614;28;20033;-69
2021/11/11 19:02:25;;;;;;;17.38;2.95;;;;;;;7.80;80.34;100658.22;5024136;28;20052;-71
2021/11/11 19:07:27;;;;;;;11.52;2.30;;;;;;;7.76;80.14;100659.94;5024226;28;20024;-72